KBWI/BWI METAR and TAF weather

Enter ICAO airport designator
Station Type Date Time Source
KBWI METAR 2020/09/30 14:54 UTC NOAA

KBWI 301454Z 27015G22KT 10SM FEW030 18/09 A2983 RMK AO2 SLP099 T01830089 51017


Station Type Date Time Source
KBWI Decoded METAR 2020/09/30 14:54 UTC NOAA

BALTIMORE-WASHINGTON INTERNATIONAL , MD, United States (KBWI) 39-10N 076-41W 59M
Sep 30, 2020 - 10:54 AM EDT / 2020.09.30 1454 UTC
Wind: from the W (270 degrees) at 17 MPH (15 KT) gusting to 25 MPH (22 KT):0
Visibility: 10 mile(s):0
Sky conditions: mostly clear
Temperature: 64.9 F (18.3 C)
Dew Point: 48.0 F (8.9 C)
Relative Humidity: 54%
Pressure (altimeter): 29.83 in. Hg (1010 hPa)
Pressure tendency: 0.05 inches (1.7 hPa) higher than three hours ago
ob: KBWI 301454Z 27015G22KT 10SM FEW030 18/09 A2983 RMK AO2 SLP099 T01830089 51017
cycle: 15

Station Type Date Time Source
KBWI TAF 2020/09/30 15:09 UTC NOAA

TAF
AMD KBWI 301506Z 3015/0118 26015G22KT P6SM FEW030 FEW250
FM301700 25015G22KT P6SM FEW250
FM302300 22006KT P6SM SKC
FM011600 27005KT P6SM FEW040 SCT250

Example: see airport list